createdAt,value
2018-11-29T00:00:41.201Z,9.09
2018-11-29T00:03:11.172Z,9.05
2018-11-29T00:05:40.653Z,9.17
2018-11-29T00:08:09.698Z,9.23
2018-11-29T00:10:38.609Z,9.29
2018-11-29T00:13:07.606Z,9.12
2018-11-29T00:15:36.721Z,9.08
2018-11-29T00:18:05.697Z,9.41
2018-11-29T00:20:34.590Z,9.51
2018-11-29T00:23:03.567Z,9.23
2018-11-29T00:25:32.474Z,9.25
2018-11-29T00:28:01.394Z,9.24
2018-11-29T00:30:30.293Z,9.47
2018-11-29T00:32:59.202Z,9.20
2018-11-29T00:35:28.106Z,9.23
2018-11-29T00:37:56.992Z,9.23
2018-11-29T00:40:25.905Z,9.18
2018-11-29T00:42:54.805Z,9.12
2018-11-29T00:45:24.326Z,9.11
2018-11-29T00:47:53.328Z,9.09
2018-11-29T00:50:22.325Z,9.38
2018-11-29T00:52:51.545Z,9.24
2018-11-29T00:55:23.868Z,9.18
2018-11-29T00:57:52.857Z,9.19
2018-11-29T01:00:22.637Z,9.19
2018-11-29T01:02:51.567Z,9.23
2018-11-29T01:05:20.522Z,9.16
2018-11-29T01:07:49.423Z,9.10
2018-11-29T01:10:18.767Z,9.15
2018-11-29T01:12:48.203Z,9.16
2018-11-29T01:15:18.027Z,9.36
2018-11-29T01:17:47.709Z,9.14
2018-11-29T01:20:17.632Z,9.11
2018-11-29T01:22:46.556Z,9.11
2018-11-29T01:25:15.939Z,9.15
2018-11-29T01:27:45.915Z,9.18
2018-11-29T01:30:15.678Z,9.14
2018-11-29T01:32:44.627Z,9.13
2018-11-29T01:35:14.648Z,9.18
2018-11-29T01:37:43.578Z,9.12
2018-11-29T01:40:23.058Z,9.15
2018-11-29T01:42:58.228Z,9.10
2018-11-29T01:45:27.207Z,9.12
2018-11-29T01:47:56.067Z,9.17
2018-11-29T01:50:24.988Z,9.09
2018-11-29T01:52:53.914Z,9.12
2018-11-29T01:55:22.852Z,9.38
2018-11-29T01:57:51.676Z,9.24
2018-11-29T02:00:20.609Z,9.21
2018-11-29T02:02:50.815Z,9.17
2018-11-29T02:05:19.714Z,9.24
2018-11-29T02:07:48.586Z,9.24
2018-11-29T02:10:27.680Z,9.22
2018-11-29T02:12:56.575Z,9.17
2018-11-29T02:15:25.499Z,9.48
2018-11-29T02:17:54.415Z,9.28
2018-11-29T02:20:23.297Z,9.27
2018-11-29T02:22:52.162Z,9.31
2018-11-29T02:25:21.060Z,9.34
2018-11-29T02:27:50.024Z,9.20
2018-11-29T02:30:22.358Z,9.22
2018-11-29T02:32:51.822Z,9.22
2018-11-29T02:35:20.732Z,9.25
2018-11-29T02:37:49.658Z,9.25
2018-11-29T02:40:18.830Z,9.22
2018-11-29T02:42:48.806Z,9.35
2018-11-29T02:45:18.933Z,9.14
2018-11-29T02:47:47.822Z,9.20
2018-11-29T02:50:16.736Z,9.20
2018-11-29T02:52:45.651Z,9.15
2018-11-29T02:55:14.537Z,9.17
2018-11-29T02:57:43.438Z,9.21
2018-11-29T03:00:16.075Z,9.25
2018-11-29T03:02:44.975Z,9.23
2018-11-29T03:05:13.962Z,9.33
2018-11-29T03:07:42.932Z,9.32
2018-11-29T03:10:12.736Z,9.38
2018-11-29T03:12:41.991Z,9.43
2018-11-29T03:15:14.640Z,9.41
2018-11-29T03:17:44.146Z,9.37
2018-11-29T03:20:13.860Z,9.30
2018-11-29T03:22:42.795Z,9.35
2018-11-29T03:25:15.294Z,9.27
2018-11-29T03:27:44.616Z,9.36
2018-11-29T03:30:17.485Z,9.34
2018-11-29T03:32:46.363Z,9.39
2018-11-29T03:35:15.464Z,9.44
2018-11-29T03:37:44.385Z,9.44
2018-11-29T03:40:16.808Z,9.68
2018-11-29T03:42:46.047Z,9.53
2018-11-29T03:45:15.688Z,9.49
2018-11-29T03:47:44.950Z,9.42
2018-11-29T03:50:15.100Z,9.51
2018-11-29T03:52:44.020Z,9.55
2018-11-29T03:55:12.898Z,9.48
2018-11-29T03:57:41.817Z,9.47
2018-11-29T04:00:17.605Z,9.85
2018-11-29T04:02:47.406Z,9.67
2018-11-29T04:05:16.315Z,9.72
2018-11-29T04:07:45.268Z,9.74
2018-11-29T04:10:15.103Z,9.63
2018-11-29T04:12:44.022Z,9.61
2018-11-29T04:15:13.898Z,9.62
2018-11-29T04:17:42.840Z,9.60
2018-11-29T04:20:15.592Z,9.71
2018-11-29T04:22:44.483Z,9.72
2018-11-29T04:25:14.213Z,9.77
2018-11-29T04:27:43.096Z,9.71
2018-11-29T04:30:15.962Z,9.81
2018-11-29T04:32:44.826Z,9.81
2018-11-29T04:35:14.011Z,9.81
2018-11-29T04:37:42.927Z,9.87
2018-11-29T04:40:15.835Z,9.85
2018-11-29T04:42:44.843Z,9.84
2018-11-29T04:45:14.895Z,9.81
2018-11-29T04:47:43.789Z,9.90
2018-11-29T04:50:12.730Z,9.92
2018-11-29T04:52:41.670Z,9.90
2018-11-29T04:55:10.684Z,9.90
2018-11-29T04:57:39.568Z,9.82
2018-11-29T05:00:17.807Z,10.12
2018-11-29T05:02:46.649Z,10.00
2018-11-29T05:05:15.577Z,9.96
2018-11-29T05:07:44.493Z,9.90
2018-11-29T05:10:16.523Z,9.92
2018-11-29T05:12:46.042Z,9.84
2018-11-29T05:15:14.933Z,9.82
2018-11-29T05:17:43.881Z,9.81
2018-11-29T05:20:12.778Z,9.74
2018-11-29T05:22:41.725Z,9.78
2018-11-29T05:25:10.556Z,9.75
2018-11-29T05:27:39.450Z,9.78
2018-11-29T05:30:12.580Z,9.70
2018-11-29T05:32:41.499Z,9.67
2018-11-29T05:35:11.387Z,9.61
2018-11-29T05:37:40.319Z,9.65
2018-11-29T05:40:18.259Z,9.64
2018-11-29T05:42:47.159Z,9.67
2018-11-29T05:45:16.064Z,9.63
2018-11-29T05:47:44.976Z,9.65
2018-11-29T05:50:13.879Z,9.59
2018-11-29T05:52:42.780Z,9.63
2018-11-29T05:55:12.355Z,9.62
2018-11-29T05:57:41.270Z,9.67
2018-11-29T06:00:14.096Z,9.60
2018-11-29T06:02:43.748Z,9.57
2018-11-29T06:05:14.256Z,9.58
2018-11-29T06:07:43.176Z,9.55
2018-11-29T06:10:12.098Z,9.54
2018-11-29T06:12:41.009Z,9.48
2018-11-29T06:15:11.075Z,9.43
2018-11-29T06:17:40.340Z,9.75
2018-11-29T06:20:13.474Z,9.64
2018-11-29T06:22:42.358Z,9.83
2018-11-29T06:25:11.502Z,9.57
2018-11-29T06:27:40.447Z,9.61
2018-11-29T06:30:20.176Z,9.62
2018-11-29T06:32:50.075Z,9.47
2018-11-29T06:35:18.995Z,9.47
2018-11-29T06:37:47.990Z,9.51
2018-11-29T06:40:17.632Z,9.53
2018-11-29T06:42:46.552Z,9.48
2018-11-29T06:45:16.563Z,9.47
2018-11-29T06:47:45.690Z,9.45
2018-11-29T06:50:14.860Z,9.48
2018-11-29T06:52:44.797Z,9.40
2018-11-29T06:55:18.198Z,9.75
2018-11-29T06:57:47.111Z,9.56
2018-11-29T07:00:38.851Z,9.52
2018-11-29T07:03:07.844Z,9.44
2018-11-29T07:05:36.736Z,9.51
2018-11-29T07:08:06.204Z,9.53
2018-11-29T07:10:35.878Z,9.56
2018-11-29T07:13:06.299Z,9.53
2018-11-29T07:15:35.226Z,9.52
2018-11-29T07:18:04.149Z,9.46
2018-11-29T07:20:33.050Z,9.54
2018-11-29T07:23:01.966Z,9.51
2018-11-29T07:25:30.895Z,9.45
2018-11-29T07:27:59.824Z,9.49
2018-11-29T07:30:28.754Z,9.47
2018-11-29T07:32:57.700Z,9.50
2018-11-29T07:35:26.699Z,9.42
2018-11-29T07:37:55.597Z,9.37
2018-11-29T07:40:24.463Z,9.69
2018-11-29T07:42:54.543Z,9.58
2018-11-29T07:45:23.480Z,9.58
2018-11-29T07:47:52.362Z,9.53
2018-11-29T07:50:22.365Z,9.37
2018-11-29T07:52:51.236Z,9.42
2018-11-29T07:55:23.285Z,9.48
2018-11-29T07:57:53.132Z,9.35
2018-11-29T08:00:22.337Z,9.42
2018-11-29T08:02:51.237Z,9.27
2018-11-29T08:05:20.127Z,9.34
2018-11-29T08:07:49.357Z,9.34
2018-11-29T08:10:19.019Z,9.39
2018-11-29T08:12:48.120Z,9.39
2018-11-29T08:15:18.413Z,9.29
2018-11-29T08:17:47.288Z,9.31
2018-11-29T08:20:20.105Z,9.63
2018-11-29T08:22:49.008Z,9.46
2018-11-29T08:25:17.901Z,9.42
2018-11-29T08:27:46.843Z,9.43
2018-11-29T08:30:16.387Z,9.38
2018-11-29T08:32:45.312Z,9.23
2018-11-29T08:35:15.276Z,9.56
2018-11-29T08:37:45.229Z,9.41
2018-11-29T08:40:18.120Z,9.61
2018-11-29T08:42:47.932Z,9.42
2018-11-29T08:45:16.861Z,9.38
2018-11-29T08:47:45.788Z,9.42
2018-11-29T08:50:15.244Z,9.31
2018-11-29T08:52:45.117Z,9.28
2018-11-29T08:55:18.061Z,9.19
2018-11-29T08:57:47.716Z,9.11
2018-11-29T09:00:20.273Z,9.12
2018-11-29T09:02:49.307Z,9.12
2018-11-29T09:05:18.344Z,9.19
2018-11-29T09:07:48.159Z,9.18
2018-11-29T09:10:18.354Z,9.17
2018-11-29T09:12:47.318Z,9.22
2018-11-29T09:15:16.999Z,9.25
2018-11-29T09:17:46.002Z,9.21
2018-11-29T09:20:18.683Z,9.16
2018-11-29T09:22:47.593Z,9.13
2018-11-29T09:25:17.501Z,9.13
2018-11-29T09:27:46.417Z,9.06
2018-11-29T09:30:18.830Z,9.07
2018-11-29T09:32:51.534Z,9.06
2018-11-29T09:35:20.464Z,9.37
2018-11-29T09:37:49.382Z,9.27
2018-11-29T09:40:18.824Z,9.27
2018-11-29T09:42:47.725Z,9.15
2018-11-29T09:45:21.388Z,9.15
2018-11-29T09:47:54.489Z,9.24
2018-11-29T09:50:24.837Z,9.37
2018-11-29T09:52:54.343Z,9.24
2018-11-29T09:55:27.374Z,9.19
2018-11-29T09:58:02.435Z,9.08
2018-11-29T10:00:36.059Z,9.20
2018-11-29T10:03:10.356Z,9.44
2018-11-29T10:05:40.109Z,9.19
2018-11-29T10:08:12.373Z,9.25
2018-11-29T10:10:43.933Z,9.20
2018-11-29T10:13:21.708Z,9.22
2018-11-29T10:15:51.225Z,9.27
2018-11-29T10:18:21.035Z,9.18
2018-11-29T10:20:53.750Z,9.10
2018-11-29T10:23:23.309Z,9.20
2018-11-29T10:25:55.275Z,9.22
2018-11-29T10:28:25.162Z,9.25
2018-11-29T10:31:04.139Z,9.27
2018-11-29T10:33:33.212Z,9.25
2018-11-29T10:36:03.205Z,9.32
2018-11-29T10:38:35.459Z,9.31
2018-11-29T10:41:07.871Z,9.26
2018-11-29T10:43:37.908Z,9.38
2018-11-29T10:46:07.865Z,9.38
2018-11-29T10:48:39.212Z,9.35
2018-11-29T10:51:09.223Z,9.46
2018-11-29T10:53:41.176Z,9.42
2018-11-29T10:56:11.270Z,9.41
2018-11-29T10:58:42.483Z,9.35
2018-11-29T11:01:28.144Z,9.35
2018-11-29T11:03:58.157Z,9.22
2018-11-29T11:06:31.615Z,9.33
2018-11-29T11:09:01.186Z,9.36
2018-11-29T11:11:35.731Z,9.34
2018-11-29T11:14:08.937Z,9.33
2018-11-29T11:16:41.979Z,9.30
2018-11-29T11:19:11.920Z,9.30
2018-11-29T11:21:41.643Z,9.38
2018-11-29T11:24:11.889Z,9.40
2018-11-29T11:26:50.452Z,9.41
2018-11-29T11:29:24.454Z,9.46
2018-11-29T11:31:57.009Z,9.43
2018-11-29T11:34:26.582Z,9.48
2018-11-29T11:36:58.551Z,9.49
2018-11-29T11:39:28.913Z,9.46
2018-11-29T11:42:01.326Z,9.39
2018-11-29T11:44:32.218Z,9.40
2018-11-29T11:47:02.308Z,9.32
2018-11-29T11:49:32.004Z,9.25
2018-11-29T11:52:03.686Z,9.32
2018-11-29T11:54:33.052Z,9.28
2018-11-29T11:57:02.867Z,9.36
2018-11-29T11:59:36.880Z,9.41
2018-11-29T12:02:10.411Z,9.37
2018-11-29T12:04:40.899Z,9.39
2018-11-29T12:07:12.229Z,9.41
2018-11-29T12:09:40.586Z,9.35
2018-11-29T12:12:10.220Z,9.45
2018-11-29T12:14:39.308Z,9.32
2018-11-29T12:17:14.016Z,9.40
2018-11-29T12:19:41.455Z,9.41
2018-11-29T12:22:13.932Z,9.34
2018-11-29T12:24:44.049Z,9.33
2018-11-29T12:27:13.746Z,9.65
2018-11-29T12:29:43.301Z,9.54
2018-11-29T12:32:13.590Z,9.50
2018-11-29T12:34:45.095Z,9.48
2018-11-29T12:37:20.075Z,9.28
2018-11-29T12:39:49.786Z,9.43
2018-11-29T12:42:22.389Z,9.42
2018-11-29T12:44:55.459Z,9.40
2018-11-29T12:47:25.386Z,9.59
2018-11-29T12:49:54.952Z,9.72
2018-11-29T12:52:24.862Z,9.43
2018-11-29T12:54:57.543Z,9.47
2018-11-29T12:57:26.983Z,9.44
2018-11-29T12:59:59.003Z,9.47
2018-11-29T13:02:27.479Z,9.43
2018-11-29T13:05:01.764Z,9.45
2018-11-29T13:07:32.044Z,9.49
2018-11-29T13:10:03.446Z,9.42
2018-11-29T13:12:35.652Z,9.48
2018-11-29T13:15:27.197Z,9.54
2018-11-29T13:18:05.481Z,9.47
2018-11-29T13:20:36.015Z,9.47
2018-11-29T13:23:08.446Z,9.53
2018-11-29T13:25:38.371Z,9.54
2018-11-29T13:28:08.712Z,9.55
2018-11-29T13:30:39.027Z,9.46
2018-11-29T13:33:09.762Z,9.49
2018-11-29T13:35:40.093Z,9.52
2018-11-29T13:38:14.342Z,9.49
2018-11-29T13:40:52.362Z,9.47
2018-11-29T13:43:22.119Z,9.51
2018-11-29T13:45:52.062Z,9.72
2018-11-29T13:48:25.807Z,9.47
2018-11-29T13:50:55.991Z,9.42
2018-11-29T13:53:25.831Z,9.32
2018-11-29T13:55:55.407Z,9.45
2018-11-29T13:58:26.601Z,9.50
2018-11-29T14:00:58.950Z,9.41
2018-11-29T14:03:28.438Z,9.37
2018-11-29T14:06:00.513Z,9.71
2018-11-29T14:08:30.401Z,9.66
2018-11-29T14:11:00.193Z,9.68
2018-11-29T14:13:30.122Z,9.70
2018-11-29T14:15:59.603Z,9.68
2018-11-29T14:18:29.424Z,9.62
2018-11-29T14:21:01.395Z,9.75
2018-11-29T14:23:35.854Z,9.83
2018-11-29T14:26:05.179Z,9.90
2018-11-29T14:28:37.862Z,9.76
2018-11-29T14:31:07.424Z,9.78
2018-11-29T14:33:36.953Z,9.79
2018-11-29T14:36:09.263Z,9.74
2018-11-29T14:38:41.376Z,9.70
2018-11-29T14:41:14.068Z,9.91
2018-11-29T14:43:48.963Z,9.77
2018-11-29T14:46:23.717Z,9.61
2018-11-29T14:48:55.644Z,9.91
2018-11-29T14:51:25.457Z,9.73
2018-11-29T14:53:55.208Z,9.63
2018-11-29T14:56:27.084Z,9.55
2018-11-29T14:58:57.020Z,9.54
2018-11-29T15:01:29.783Z,9.63
2018-11-29T15:04:05.151Z,9.57
2018-11-29T15:06:34.956Z,9.41
2018-11-29T15:09:05.397Z,9.51
2018-11-29T15:11:37.286Z,9.43
2018-11-29T15:14:07.175Z,9.71
2018-11-29T15:16:37.541Z,9.51
2018-11-29T15:19:07.441Z,9.50
2018-11-29T15:21:37.761Z,9.50
2018-11-29T15:24:10.914Z,9.49
2018-11-29T15:26:40.766Z,9.45
2018-11-29T15:29:13.260Z,9.36
2018-11-29T15:31:45.581Z,9.40
2018-11-29T15:34:15.493Z,9.34
2018-11-29T15:36:45.101Z,9.32
2018-11-29T15:39:17.422Z,9.34
2018-11-29T15:41:51.022Z,9.30
2018-11-29T15:44:27.846Z,9.23
2018-11-29T15:46:58.274Z,9.16
2018-11-29T15:49:32.877Z,9.19
2018-11-29T15:52:02.694Z,9.16
2018-11-29T15:54:35.193Z,9.13
2018-11-29T15:57:05.347Z,9.15
2018-11-29T15:59:38.123Z,9.16
2018-11-29T16:02:08.005Z,9.15
2018-11-29T16:04:38.608Z,9.14
2018-11-29T16:07:08.285Z,9.13
2018-11-29T16:09:37.906Z,9.03
2018-11-29T16:12:07.123Z,9.07
2018-11-29T16:14:36.034Z,9.04
2018-11-29T16:17:05.005Z,9.07
2018-11-29T16:19:33.946Z,9.07
2018-11-29T16:22:02.893Z,9.07
2018-11-29T16:24:31.784Z,9.08
2018-11-29T16:27:00.728Z,9.18
2018-11-29T16:29:29.636Z,9.15
2018-11-29T16:31:58.558Z,9.46
2018-11-29T16:34:27.470Z,9.27
2018-11-29T16:36:56.376Z,9.36
2018-11-29T16:39:25.375Z,9.36
2018-11-29T16:41:54.284Z,9.40
2018-11-29T16:44:23.216Z,9.37
2018-11-29T16:46:52.157Z,9.38
2018-11-29T16:49:21.073Z,9.43
2018-11-29T16:51:49.962Z,9.47
2018-11-29T16:54:18.879Z,9.49
2018-11-29T16:56:47.785Z,9.49
2018-11-29T16:59:16.699Z,9.52
2018-11-29T17:01:45.642Z,9.49
2018-11-29T17:04:14.532Z,9.51
2018-11-29T17:06:43.434Z,9.49
2018-11-29T17:09:12.333Z,9.51
2018-11-29T17:11:41.277Z,9.50
2018-11-29T17:14:10.275Z,9.53
2018-11-29T17:16:39.264Z,9.60
2018-11-29T17:19:08.305Z,9.58
2018-11-29T17:21:37.227Z,9.49
2018-11-29T17:24:06.174Z,9.62
2018-11-29T17:26:35.065Z,9.52
2018-11-29T17:29:04.058Z,9.66
2018-11-29T17:31:32.881Z,9.57
2018-11-29T17:34:01.770Z,9.63
2018-11-29T17:36:30.646Z,9.69
2018-11-29T17:38:59.568Z,9.79
2018-11-29T17:41:28.491Z,9.70
2018-11-29T17:43:57.410Z,9.77
2018-11-29T17:46:26.354Z,9.76
2018-11-29T17:48:55.278Z,9.74
2018-11-29T17:51:24.168Z,9.92
2018-11-29T17:53:53.070Z,9.70
2018-11-29T17:56:21.981Z,9.56
2018-11-29T17:58:50.885Z,9.68
2018-11-29T18:01:19.849Z,9.55
2018-11-29T18:03:48.757Z,9.55
2018-11-29T18:06:17.673Z,9.40
2018-11-29T18:08:46.592Z,9.42
2018-11-29T18:11:15.492Z,9.44
2018-11-29T18:13:45.518Z,9.41
2018-11-29T18:16:14.476Z,9.37
2018-11-29T18:18:43.334Z,9.29
2018-11-29T18:21:12.262Z,9.34
2018-11-29T18:23:41.194Z,9.33
2018-11-29T18:26:10.137Z,9.31
2018-11-29T18:28:39.074Z,9.39
2018-11-29T18:31:08.082Z,9.60
2018-11-29T18:33:37.025Z,9.42
2018-11-29T18:36:06.208Z,9.46
2018-11-29T18:38:35.163Z,9.71
2018-11-29T18:41:04.486Z,9.54
2018-11-29T18:43:33.369Z,9.55
2018-11-29T18:46:02.274Z,9.55
2018-11-29T18:48:31.189Z,9.62
2018-11-29T18:51:00.240Z,9.50
2018-11-29T18:53:29.148Z,9.52
2018-11-29T18:56:00.476Z,9.50
2018-11-29T18:58:26.973Z,9.55
2018-11-29T19:00:55.882Z,9.49
2018-11-29T19:03:24.765Z,9.54
2018-11-29T19:05:53.672Z,9.55
2018-11-29T19:08:22.572Z,9.66
2018-11-29T19:10:51.745Z,9.50
2018-11-29T19:13:20.645Z,9.54
2018-11-29T19:15:49.537Z,9.59
2018-11-29T19:18:20.344Z,9.63
2018-11-29T19:20:51.139Z,9.61
2018-11-29T19:23:21.976Z,9.63
2018-11-29T19:25:52.352Z,9.66
2018-11-29T19:28:22.287Z,9.82
2018-11-29T19:30:51.405Z,9.77
2018-11-29T19:33:21.778Z,9.62
2018-11-29T19:35:51.793Z,9.79
2018-11-29T19:38:20.714Z,9.74
2018-11-29T19:40:49.578Z,9.92
2018-11-29T19:43:18.494Z,9.75
2018-11-29T19:45:47.384Z,9.78
2018-11-29T19:48:16.284Z,9.77
2018-11-29T19:50:45.193Z,9.86
2018-11-29T19:53:16.205Z,9.86
2018-11-29T19:55:45.119Z,9.84
2018-11-29T19:58:14.067Z,9.91
2018-11-29T20:00:42.973Z,9.89
2018-11-29T20:03:11.895Z,9.83
2018-11-29T20:05:40.777Z,9.91
2018-11-29T20:08:09.690Z,9.91
2018-11-29T20:10:38.757Z,9.94
2018-11-29T20:13:09.495Z,10.17
2018-11-29T20:15:39.776Z,10.06
2018-11-29T20:18:10.051Z,10.06
2018-11-29T20:20:38.949Z,10.07
2018-11-29T20:23:10.954Z,9.96
2018-11-29T20:25:42.531Z,10.31
2018-11-29T20:28:13.330Z,10.14
2018-11-29T20:30:46.653Z,10.09
2018-11-29T20:33:17.467Z,10.05
2018-11-29T20:35:48.340Z,10.08
2018-11-29T20:38:17.186Z,10.05
2018-11-29T20:40:46.796Z,9.95
2018-11-29T20:43:16.027Z,9.98
2018-11-29T20:45:51.968Z,9.95
2018-11-29T20:48:25.191Z,9.99
2018-11-29T20:50:55.090Z,9.90
2018-11-29T20:53:25.926Z,9.91
2018-11-29T20:55:54.861Z,9.86
2018-11-29T20:58:23.764Z,9.90
2018-11-29T21:00:52.661Z,9.73
2018-11-29T21:03:21.560Z,9.82
2018-11-29T21:05:50.443Z,9.75
2018-11-29T21:08:19.561Z,9.83
2018-11-29T21:10:48.502Z,9.85
2018-11-29T21:13:17.378Z,9.82
2018-11-29T21:15:46.248Z,9.86
2018-11-29T21:18:15.668Z,9.87
2018-11-29T21:20:45.360Z,9.87
2018-11-29T21:23:15.617Z,9.93
2018-11-29T21:25:45.289Z,9.81
2018-11-29T21:28:14.178Z,9.89
2018-11-29T21:30:43.069Z,9.92
2018-11-29T21:33:12.489Z,9.92
2018-11-29T21:35:41.441Z,9.93
2018-11-29T21:38:22.688Z,9.87
2018-11-29T21:41:09.638Z,9.81
2018-11-29T21:43:38.703Z,9.81
2018-11-29T21:46:07.672Z,10.05
2018-11-29T21:48:36.561Z,10.17
2018-11-29T21:51:05.526Z,9.95
2018-11-29T21:53:34.454Z,9.85
2018-11-29T21:56:03.396Z,9.80
2018-11-29T21:58:32.291Z,9.80
2018-11-29T22:01:01.200Z,10.06
2018-11-29T22:03:30.093Z,9.91
2018-11-29T22:05:58.988Z,9.87
2018-11-29T22:08:27.882Z,9.81
2018-11-29T22:10:56.762Z,9.85
2018-11-29T22:13:25.702Z,9.95
2018-11-29T22:15:54.634Z,9.96
2018-11-29T22:18:24.698Z,9.93
2018-11-29T22:21:03.815Z,9.88
2018-11-29T22:23:36.993Z,9.87
2018-11-29T22:26:11.420Z,9.88
2018-11-29T22:28:40.951Z,9.78
2018-11-29T22:31:09.852Z,9.83
2018-11-29T22:33:38.780Z,9.82
2018-11-29T22:36:07.719Z,9.78
2018-11-29T22:38:36.625Z,9.95
2018-11-29T22:41:05.668Z,9.86
2018-11-29T22:43:34.584Z,9.84
2018-11-29T22:46:03.502Z,9.94
2018-11-29T22:48:32.425Z,9.95
2018-11-29T22:51:01.329Z,10.00
2018-11-29T22:53:30.212Z,9.98
2018-11-29T22:55:59.105Z,10.05
2018-11-29T22:58:27.998Z,9.98
2018-11-29T23:00:56.902Z,10.09
2018-11-29T23:03:25.842Z,10.11
2018-11-29T23:05:54.719Z,10.11
2018-11-29T23:08:23.618Z,10.12
2018-11-29T23:10:52.886Z,10.16
2018-11-29T23:13:21.769Z,10.13
2018-11-29T23:15:50.675Z,10.04
2018-11-29T23:18:19.575Z,9.92
2018-11-29T23:20:48.489Z,9.95
2018-11-29T23:23:17.371Z,9.93
2018-11-29T23:25:46.265Z,9.96
2018-11-29T23:28:15.193Z,9.92
2018-11-29T23:30:44.117Z,9.96
2018-11-29T23:33:13.063Z,10.26
2018-11-29T23:35:41.922Z,10.11
2018-11-29T23:38:10.811Z,10.04
2018-11-29T23:40:39.808Z,10.05
2018-11-29T23:43:08.667Z,9.99
2018-11-29T23:45:37.699Z,10.05
2018-11-29T23:48:06.679Z,10.08
2018-11-29T23:50:35.626Z,10.07
2018-11-29T23:53:04.748Z,10.02
2018-11-29T23:55:33.650Z,10.03
2018-11-29T23:58:02.570Z,10.06
